This demonstration page uses our WeatherBlox Daily Observations layout. Learn more.

38.89511, -77.03637

Hourly Observations for November 28, 2017

Temp ( °F °C ) Dew Point ( °F °C ) Humidity (%) Winds ( mph kmh ) Pressure ( in mb ) Visibility ( mi km ) Precip ( " mm )
12:52 am 00:52 Mostly Cloudy 43 6.1 36 2.2 76 76 SSW 3 6 30.24 1024 10 16.09344 0 0
1:52 am 01:52 Partly Cloudy 43 6.1 38 3.3 82 82 Calm 30.27 1025 10 16.09344 0 0
2:52 am 02:52 Mostly Clear 41 5 36 2.2 82 82 Calm 30.3 1026 10 16.09344 0 0
3:52 am 03:52 Mostly Clear 41 5 36 2.2 82 82 NE 3 6 30.3 1026 10 16.09344 0 0
4:52 am 04:52 Mostly Clear 40 4.4 35 1.7 83 83 ENE 5 7 30.3 1026 10 16.09344 0 0
5:52 am 05:52 Mostly Clear 40 4.4 38 3.3 93 93 NE 3 6 30.33 1027 10 16.09344 0 0
6:52 am 06:52 Mostly Clear 39 3.9 34 1.1 82 82 E 3 6 30.36 1028 10 16.09344 0 0
7:52 am 07:52 Mostly Sunny 40 4.4 35 1.7 83 83 ENE 6 9 30.36 1028 10 16.09344 0 0
8:52 am 08:52 Mostly Sunny 44 6.7 37 2.8 76 76 ENE 3 6 30.36 1028 10 16.09344 0 0
9:52 am 09:52 Mostly Sunny 47 8.3 36 2.2 66 66 SSE 3 6 30.36 1028 10 16.09344 0 0
10:52 am 10:52 Mostly Sunny 51 10.6 35 1.7 54 54 S 8 13 30.36 1028 10 16.09344 0 0
11:52 am 11:52 Sunny 56 13.3 34 1.1 44 44 SSE 7 11 30.36 1028 10 16.09344 0 0
12:52 pm 12:52 Sunny 60 15.6 34 1.1 38 38 S 8 13 30.33 1027 10 16.09344 0 0
1:52 pm 13:52 Sunny 60 15.6 33 0.6 36 36 S 12 19 30.3 1026 10 16.09344 0 0
2:52 pm 14:52 Sunny 60 15.6 33 0.6 36 36 S 10 17 30.3 1026 10 16.09344 0 0
3:52 pm 15:52 Sunny 57 13.9 36 2.2 45 45 S 12 19 30.3 1026 10 16.09344 0 0
4:52 pm 16:52 Mostly Clear 55 12.8 37 2.8 51 51 S 9 15 30.27 1025 10 16.09344 0 0
5:52 pm 17:52 Clear 53 11.7 38 3.3 57 57 S 10 17 30.27 1025 10 16.09344 0 0
6:52 pm 18:52 Clear 52 11.1 39 3.9 61 61 S 10 17 30.27 1025 10 16.09344 0 0
7:52 pm 19:52 Clear 50 10 41 5 71 71 S 8 13 30.27 1025 10 16.09344 0 0
8:52 pm 20:52 Clear 51 10.6 42 5.6 71 71 S 8 13 30.27 1025 10 16.09344 0 0
9:52 pm 21:52 Clear 50 10 43 6.1 77 77 S 8 13 30.27 1025 10 16.09344 0 0
10:52 pm 22:52 Mostly Clear 50 10 42 5.6 74 74 SSW 7 11 30.24 1024 10 16.09344 0 0
11:52 pm 23:52 Clear 49 9.4 43 6.1 80 80 SSW 6 9 30.24 1024 10 16.09344 0 0

Powered by AerisWeather